sensor_id;sensor_type;location;lat;lon;timestamp;temperature;humidity
17954;DHT22;9102;53.548;9.926;2023-08-01T00:00:29;16.30;99.90
17954;DHT22;9102;53.548;9.926;2023-08-01T00:02:56;16.30;99.90
17954;DHT22;9102;53.548;9.926;2023-08-01T00:05:23;16.30;99.90
17954;DHT22;9102;53.548;9.926;2023-08-01T00:07:50;16.30;99.90
17954;DHT22;9102;53.548;9.926;2023-08-01T00:10:16;16.30;99.90
17954;DHT22;9102;53.548;9.926;2023-08-01T00:12:43;16.20;99.90
17954;DHT22;9102;53.548;9.926;2023-08-01T00:15:10;16.10;99.90
17954;DHT22;9102;53.548;9.926;2023-08-01T00:17:39;16.10;99.90
17954;DHT22;9102;53.548;9.926;2023-08-01T00:20:07;16.10;99.90
17954;DHT22;9102;53.548;9.926;2023-08-01T00:22:34;16.10;99.90
17954;DHT22;9102;53.548;9.926;2023-08-01T00:25:01;16.10;99.90
17954;DHT22;9102;53.548;9.926;2023-08-01T00:27:28;16.20;99.90
17954;DHT22;9102;53.548;9.926;2023-08-01T00:29:55;16.20;99.90
17954;DHT22;9102;53.548;9.926;2023-08-01T00:32:21;16.20;99.90
17954;DHT22;9102;53.548;9.926;2023-08-01T00:34:51;16.10;99.90
17954;DHT22;9102;53.548;9.926;2023-08-01T00:37:18;16.00;99.90
17954;DHT22;9102;53.548;9.926;2023-08-01T00:39:45;16.10;99.90
17954;DHT22;9102;53.548;9.926;2023-08-01T00:42:11;16.00;99.90
17954;DHT22;9102;53.548;9.926;2023-08-01T00:44:39;15.90;99.90
17954;DHT22;9102;53.548;9.926;2023-08-01T00:47:05;15.90;99.90
17954;DHT22;9102;53.548;9.926;2023-08-01T00:49:32;15.90;99.90
17954;DHT22;9102;53.548;9.926;2023-08-01T00:52:01;15.90;99.90
17954;DHT22;9102;53.548;9.926;2023-08-01T00:54:28;15.90;99.90
17954;DHT22;9102;53.548;9.926;2023-08-01T00:57:01;15.90;99.90
17954;DHT22;9102;53.548;9.926;2023-08-01T00:59:27;15.90;99.90
17954;DHT22;9102;53.548;9.926;2023-08-01T01:01:54;16.00;99.90
17954;DHT22;9102;53.548;9.926;2023-08-01T01:04:21;15.80;99.90
17954;DHT22;9102;53.548;9.926;2023-08-01T01:06:52;15.90;99.90
17954;DHT22;9102;53.548;9.926;2023-08-01T01:09:22;15.90;99.90
17954;DHT22;9102;53.548;9.926;2023-08-01T01:11:48;15.90;99.90
17954;DHT22;9102;53.548;9.926;2023-08-01T01:14:15;15.90;99.90
17954;DHT22;9102;53.548;9.926;2023-08-01T01:16:42;15.90;99.90
17954;DHT22;9102;53.548;9.926;2023-08-01T01:19:09;15.90;99.90
17954;DHT22;9102;53.548;9.926;2023-08-01T01:21:39;15.90;99.90
17954;DHT22;9102;53.548;9.926;2023-08-01T01:24:08;16.00;99.90
17954;DHT22;9102;53.548;9.926;2023-08-01T01:26:36;15.90;99.90
17954;DHT22;9102;53.548;9.926;2023-08-01T01:29:04;15.90;99.90
17954;DHT22;9102;53.548;9.926;2023-08-01T01:31:32;15.90;99.90
17954;DHT22;9102;53.548;9.926;2023-08-01T01:33:59;15.90;99.90
17954;DHT22;9102;53.548;9.926;2023-08-01T01:36:27;15.80;99.90
17954;DHT22;9102;53.548;9.926;2023-08-01T01:38:56;15.90;99.90
17954;DHT22;9102;53.548;9.926;2023-08-01T01:41:22;15.90;99.90
17954;DHT22;9102;53.548;9.926;2023-08-01T01:43:49;15.80;99.90
17954;DHT22;9102;53.548;9.926;2023-08-01T01:46:16;15.90;99.90
17954;DHT22;9102;53.548;9.926;2023-08-01T01:48:43;16.00;99.90
17954;DHT22;9102;53.548;9.926;2023-08-01T01:51:10;15.90;99.90
17954;DHT22;9102;53.548;9.926;2023-08-01T01:53:36;16.00;99.90
17954;DHT22;9102;53.548;9.926;2023-08-01T01:56:05;16.00;99.90
17954;DHT22;9102;53.548;9.926;2023-08-01T01:58:31;15.90;99.90
17954;DHT22;9102;53.548;9.926;2023-08-01T02:00:58;15.90;99.90
17954;DHT22;9102;53.548;9.926;2023-08-01T02:03:25;16.00;99.90
17954;DHT22;9102;53.548;9.926;2023-08-01T02:05:52;16.00;99.90
17954;DHT22;9102;53.548;9.926;2023-08-01T02:08:18;16.00;99.90
17954;DHT22;9102;53.548;9.926;2023-08-01T02:10:45;15.90;99.90
17954;DHT22;9102;53.548;9.926;2023-08-01T02:13:13;16.10;99.90
17954;DHT22;9102;53.548;9.926;2023-08-01T02:15:40;16.10;99.90
17954;DHT22;9102;53.548;9.926;2023-08-01T02:18:07;16.10;99.90
17954;DHT22;9102;53.548;9.926;2023-08-01T02:20:33;16.10;99.90
17954;DHT22;9102;53.548;9.926;2023-08-01T02:23:00;16.10;99.90
17954;DHT22;9102;53.548;9.926;2023-08-01T02:25:27;16.10;99.90
17954;DHT22;9102;53.548;9.926;2023-08-01T02:27:54;16.10;99.90
17954;DHT22;9102;53.548;9.926;2023-08-01T02:30:22;16.10;99.90
17954;DHT22;9102;53.548;9.926;2023-08-01T02:32:49;16.10;99.90
17954;DHT22;9102;53.548;9.926;2023-08-01T02:35:15;16.20;99.90
17954;DHT22;9102;53.548;9.926;2023-08-01T02:37:42;16.10;99.90
17954;DHT22;9102;53.548;9.926;2023-08-01T02:40:10;16.10;99.90
17954;DHT22;9102;53.548;9.926;2023-08-01T02:42:37;16.10;99.90
17954;DHT22;9102;53.548;9.926;2023-08-01T02:45:04;16.10;99.90
17954;DHT22;9102;53.548;9.926;2023-08-01T02:47:32;16.20;99.90
17954;DHT22;9102;53.548;9.926;2023-08-01T02:49:59;16.20;99.90
17954;DHT22;9102;53.548;9.926;2023-08-01T02:52:25;16.20;99.90
17954;DHT22;9102;53.548;9.926;2023-08-01T02:54:52;16.20;99.90
17954;DHT22;9102;53.548;9.926;2023-08-01T02:57:19;16.20;99.90
17954;DHT22;9102;53.548;9.926;2023-08-01T02:59:46;16.10;99.90
17954;DHT22;9102;53.548;9.926;2023-08-01T03:02:12;16.20;99.90
17954;DHT22;9102;53.548;9.926;2023-08-01T03:04:40;16.20;99.90
17954;DHT22;9102;53.548;9.926;2023-08-01T03:07:07;16.20;99.90
17954;DHT22;9102;53.548;9.926;2023-08-01T03:09:34;16.20;99.90
17954;DHT22;9102;53.548;9.926;2023-08-01T03:12:01;16.20;99.90
17954;DHT22;9102;53.548;9.926;2023-08-01T03:14:28;16.20;99.90
17954;DHT22;9102;53.548;9.926;2023-08-01T03:16:54;16.10;99.90
17954;DHT22;9102;53.548;9.926;2023-08-01T03:19:21;16.20;99.90
17954;DHT22;9102;53.548;9.926;2023-08-01T03:21:51;16.20;99.90
17954;DHT22;9102;53.548;9.926;2023-08-01T03:24:17;16.20;99.90
17954;DHT22;9102;53.548;9.926;2023-08-01T03:26:44;16.20;99.90
17954;DHT22;9102;53.548;9.926;2023-08-01T03:29:11;16.20;99.90
17954;DHT22;9102;53.548;9.926;2023-08-01T03:31:38;16.20;99.90
17954;DHT22;9102;53.548;9.926;2023-08-01T03:34:04;16.10;99.90
17954;DHT22;9102;53.548;9.926;2023-08-01T03:36:34;16.20;99.90
17954;DHT22;9102;53.548;9.926;2023-08-01T03:39:02;16.30;99.90
17954;DHT22;9102;53.548;9.926;2023-08-01T03:41:30;16.10;99.90
17954;DHT22;9102;53.548;9.926;2023-08-01T03:43:57;16.20;99.90
17954;DHT22;9102;53.548;9.926;2023-08-01T03:46:24;16.20;99.90
17954;DHT22;9102;53.548;9.926;2023-08-01T03:48:51;16.20;99.90
17954;DHT22;9102;53.548;9.926;2023-08-01T03:51:18;16.20;99.90
17954;DHT22;9102;53.548;9.926;2023-08-01T03:53:46;16.20;99.90
17954;DHT22;9102;53.548;9.926;2023-08-01T03:56:14;16.20;99.90
17954;DHT22;9102;53.548;9.926;2023-08-01T03:58:41;16.10;99.90
17954;DHT22;9102;53.548;9.926;2023-08-01T04:01:08;16.20;99.90
17954;DHT22;9102;53.548;9.926;2023-08-01T04:03:34;16.20;99.90
17954;DHT22;9102;53.548;9.926;2023-08-01T04:06:01;16.20;99.90
17954;DHT22;9102;53.548;9.926;2023-08-01T04:08:28;16.20;99.90
17954;DHT22;9102;53.548;9.926;2023-08-01T04:10:55;16.20;99.90
17954;DHT22;9102;53.548;9.926;2023-08-01T04:13:23;16.20;99.90
17954;DHT22;9102;53.548;9.926;2023-08-01T04:15:50;16.20;99.90
17954;DHT22;9102;53.548;9.926;2023-08-01T04:18:17;16.20;99.90
17954;DHT22;9102;53.548;9.926;2023-08-01T04:20:43;16.20;99.90
17954;DHT22;9102;53.548;9.926;2023-08-01T04:23:10;16.10;99.90
17954;DHT22;9102;53.548;9.926;2023-08-01T04:25:37;16.20;99.90
17954;DHT22;9102;53.548;9.926;2023-08-01T04:28:04;16.30;99.90
17954;DHT22;9102;53.548;9.926;2023-08-01T04:30:32;16.40;99.90
17954;DHT22;9102;53.548;9.926;2023-08-01T04:32:59;16.30;99.90
17954;DHT22;9102;53.548;9.926;2023-08-01T04:35:26;16.20;99.90
17954;DHT22;9102;53.548;9.926;2023-08-01T04:37:53;16.30;99.90
17954;DHT22;9102;53.548;9.926;2023-08-01T04:40:19;16.20;99.90
17954;DHT22;9102;53.548;9.926;2023-08-01T04:42:46;16.20;99.90
17954;DHT22;9102;53.548;9.926;2023-08-01T04:45:13;16.20;99.90
17954;DHT22;9102;53.548;9.926;2023-08-01T04:47:41;16.20;99.90
17954;DHT22;9102;53.548;9.926;2023-08-01T04:50:08;16.30;99.90
17954;DHT22;9102;53.548;9.926;2023-08-01T04:52:35;16.20;99.90
17954;DHT22;9102;53.548;9.926;2023-08-01T04:55:02;16.30;99.90
17954;DHT22;9102;53.548;9.926;2023-08-01T04:57:29;16.30;99.90
17954;DHT22;9102;53.548;9.926;2023-08-01T04:59:55;16.30;99.90
17954;DHT22;9102;53.548;9.926;2023-08-01T05:02:22;16.30;99.90
17954;DHT22;9102;53.548;9.926;2023-08-01T05:04:51;16.40;99.90
17954;DHT22;9102;53.548;9.926;2023-08-01T05:07:18;16.40;99.90
17954;DHT22;9102;53.548;9.926;2023-08-01T05:09:45;16.40;99.90
17954;DHT22;9102;53.548;9.926;2023-08-01T05:12:12;16.40;99.90
17954;DHT22;9102;53.548;9.926;2023-08-01T05:14:38;16.40;99.90
17954;DHT22;9102;53.548;9.926;2023-08-01T05:17:05;16.40;99.90
17954;DHT22;9102;53.548;9.926;2023-08-01T05:19:32;16.50;99.90
17954;DHT22;9102;53.548;9.926;2023-08-01T05:22:01;16.40;99.90
17954;DHT22;9102;53.548;9.926;2023-08-01T05:24:27;16.40;99.90
17954;DHT22;9102;53.548;9.926;2023-08-01T05:26:54;16.40;99.90
17954;DHT22;9102;53.548;9.926;2023-08-01T05:29:21;16.40;99.90
17954;DHT22;9102;53.548;9.926;2023-08-01T05:31:48;16.30;99.90
17954;DHT22;9102;53.548;9.926;2023-08-01T05:34:14;16.30;99.90
17954;DHT22;9102;53.548;9.926;2023-08-01T05:36:41;16.30;99.90
17954;DHT22;9102;53.548;9.926;2023-08-01T05:39:09;16.30;99.90
17954;DHT22;9102;53.548;9.926;2023-08-01T05:41:36;16.30;99.90
17954;DHT22;9102;53.548;9.926;2023-08-01T05:44:04;16.40;99.90
17954;DHT22;9102;53.548;9.926;2023-08-01T05:46:30;16.30;99.90
17954;DHT22;9102;53.548;9.926;2023-08-01T05:48:57;16.40;99.90
17954;DHT22;9102;53.548;9.926;2023-08-01T05:51:24;16.30;99.90
17954;DHT22;9102;53.548;9.926;2023-08-01T05:53:51;16.40;99.90
17954;DHT22;9102;53.548;9.926;2023-08-01T05:56:19;16.40;99.90
17954;DHT22;9102;53.548;9.926;2023-08-01T05:58:46;16.40;99.90
17954;DHT22;9102;53.548;9.926;2023-08-01T06:01:13;16.50;99.90
17954;DHT22;9102;53.548;9.926;2023-08-01T06:03:40;16.60;99.90
17954;DHT22;9102;53.548;9.926;2023-08-01T06:06:07;16.60;99.90
17954;DHT22;9102;53.548;9.926;2023-08-01T06:08:34;16.60;99.90
17954;DHT22;9102;53.548;9.926;2023-08-01T06:11:00;16.60;99.90
17954;DHT22;9102;53.548;9.926;2023-08-01T06:13:29;16.60;99.90
17954;DHT22;9102;53.548;9.926;2023-08-01T06:15:55;16.70;99.90
17954;DHT22;9102;53.548;9.926;2023-08-01T06:18:22;16.80;99.90
17954;DHT22;9102;53.548;9.926;2023-08-01T06:20:49;16.80;99.90
17954;DHT22;9102;53.548;9.926;2023-08-01T06:23:16;17.00;99.90
17954;DHT22;9102;53.548;9.926;2023-08-01T06:25:42;17.00;99.90
17954;DHT22;9102;53.548;9.926;2023-08-01T06:28:09;16.90;99.90
17954;DHT22;9102;53.548;9.926;2023-08-01T06:30:38;17.10;99.90
17954;DHT22;9102;53.548;9.926;2023-08-01T06:33:04;17.20;99.90
17954;DHT22;9102;53.548;9.926;2023-08-01T06:35:31;17.10;99.90
17954;DHT22;9102;53.548;9.926;2023-08-01T06:37:58;17.20;99.90
17954;DHT22;9102;53.548;9.926;2023-08-01T06:40:25;17.20;99.90
17954;DHT22;9102;53.548;9.926;2023-08-01T06:42:52;17.00;99.90
17954;DHT22;9102;53.548;9.926;2023-08-01T06:45:18;16.90;99.90
17954;DHT22;9102;53.548;9.926;2023-08-01T06:47:49;16.90;99.90
17954;DHT22;9102;53.548;9.926;2023-08-01T06:50:16;16.90;99.90
17954;DHT22;9102;53.548;9.926;2023-08-01T06:52:43;16.90;99.90
17954;DHT22;9102;53.548;9.926;2023-08-01T06:55:10;16.70;99.90
17954;DHT22;9102;53.548;9.926;2023-08-01T06:57:37;16.80;99.90
17954;DHT22;9102;53.548;9.926;2023-08-01T07:00:05;16.80;99.90
17954;DHT22;9102;53.548;9.926;2023-08-01T07:02:32;16.90;99.90
17954;DHT22;9102;53.548;9.926;2023-08-01T07:05:00;16.90;99.90
17954;DHT22;9102;53.548;9.926;2023-08-01T07:07:27;16.90;99.90
17954;DHT22;9102;53.548;9.926;2023-08-01T07:09:53;17.00;99.90
17954;DHT22;9102;53.548;9.926;2023-08-01T07:12:20;17.20;99.90
17954;DHT22;9102;53.548;9.926;2023-08-01T07:14:47;17.40;99.90
17954;DHT22;9102;53.548;9.926;2023-08-01T07:17:14;17.20;99.90
17954;DHT22;9102;53.548;9.926;2023-08-01T07:19:41;17.30;99.90
17954;DHT22;9102;53.548;9.926;2023-08-01T07:22:09;17.40;99.90
17954;DHT22;9102;53.548;9.926;2023-08-01T07:24:36;17.50;99.90
17954;DHT22;9102;53.548;9.926;2023-08-01T07:27:03;17.70;99.90
17954;DHT22;9102;53.548;9.926;2023-08-01T07:29:30;17.60;99.90
17954;DHT22;9102;53.548;9.926;2023-08-01T07:31:57;17.70;99.90
17954;DHT22;9102;53.548;9.926;2023-08-01T07:34:24;17.80;99.90
17954;DHT22;9102;53.548;9.926;2023-08-01T07:36:51;17.70;99.90
17954;DHT22;9102;53.548;9.926;2023-08-01T07:39:19;17.70;99.90
17954;DHT22;9102;53.548;9.926;2023-08-01T07:41:46;17.70;99.90
17954;DHT22;9102;53.548;9.926;2023-08-01T07:44:12;17.90;99.90
17954;DHT22;9102;53.548;9.926;2023-08-01T07:46:39;18.00;99.90
17954;DHT22;9102;53.548;9.926;2023-08-01T07:49:06;18.30;99.90
17954;DHT22;9102;53.548;9.926;2023-08-01T07:51:33;18.40;99.90
17954;DHT22;9102;53.548;9.926;2023-08-01T07:54:00;18.50;99.90
17954;DHT22;9102;53.548;9.926;2023-08-01T07:56:28;18.50;99.90
17954;DHT22;9102;53.548;9.926;2023-08-01T07:58:55;18.50;99.90
17954;DHT22;9102;53.548;9.926;2023-08-01T08:01:22;18.70;99.90
17954;DHT22;9102;53.548;9.926;2023-08-01T08:03:49;18.80;99.90
17954;DHT22;9102;53.548;9.926;2023-08-01T08:06:15;18.90;99.90
17954;DHT22;9102;53.548;9.926;2023-08-01T08:08:42;19.20;99.90
17954;DHT22;9102;53.548;9.926;2023-08-01T08:11:09;19.20;99.90
17954;DHT22;9102;53.548;9.926;2023-08-01T08:13:37;19.10;99.90
17954;DHT22;9102;53.548;9.926;2023-08-01T08:16:05;19.10;99.90
17954;DHT22;9102;53.548;9.926;2023-08-01T08:18:32;18.80;99.90
17954;DHT22;9102;53.548;9.926;2023-08-01T08:20:59;18.80;99.90
17954;DHT22;9102;53.548;9.926;2023-08-01T08:23:26;18.80;99.90
17954;DHT22;9102;53.548;9.926;2023-08-01T08:25:53;18.80;99.90
17954;DHT22;9102;53.548;9.926;2023-08-01T08:28:28;18.80;99.90
17954;DHT22;9102;53.548;9.926;2023-08-01T08:30:56;18.60;99.90
17954;DHT22;9102;53.548;9.926;2023-08-01T08:33:23;18.60;99.90
17954;DHT22;9102;53.548;9.926;2023-08-01T08:35:51;18.70;99.90
17954;DHT22;9102;53.548;9.926;2023-08-01T08:38:18;18.80;99.90
17954;DHT22;9102;53.548;9.926;2023-08-01T08:41:02;19.00;99.90
17954;DHT22;9102;53.548;9.926;2023-08-01T08:43:32;19.20;99.90
17954;DHT22;9102;53.548;9.926;2023-08-01T08:46:02;19.40;99.90
17954;DHT22;9102;53.548;9.926;2023-08-01T08:48:29;19.50;99.90
17954;DHT22;9102;53.548;9.926;2023-08-01T08:50:57;19.70;99.90
17954;DHT22;9102;53.548;9.926;2023-08-01T08:53:25;19.90;99.90
17954;DHT22;9102;53.548;9.926;2023-08-01T08:55:52;20.20;99.90
17954;DHT22;9102;53.548;9.926;2023-08-01T08:58:20;20.40;99.90
17954;DHT22;9102;53.548;9.926;2023-08-01T09:00:47;20.50;99.90
17954;DHT22;9102;53.548;9.926;2023-08-01T09:03:15;20.30;99.90
17954;DHT22;9102;53.548;9.926;2023-08-01T09:05:46;19.60;99.90
17954;DHT22;9102;53.548;9.926;2023-08-01T09:08:17;18.70;99.90
17954;DHT22;9102;53.548;9.926;2023-08-01T09:10:44;18.10;99.90
17954;DHT22;9102;53.548;9.926;2023-08-01T09:13:12;17.70;99.90
17954;DHT22;9102;53.548;9.926;2023-08-01T09:15:40;17.50;99.90
17954;DHT22;9102;53.548;9.926;2023-08-01T09:18:07;17.30;99.90
17954;DHT22;9102;53.548;9.926;2023-08-01T09:20:42;17.10;99.90
17954;DHT22;9102;53.548;9.926;2023-08-01T09:23:09;17.00;99.90
17954;DHT22;9102;53.548;9.926;2023-08-01T09:25:36;16.90;99.90
17954;DHT22;9102;53.548;9.926;2023-08-01T09:28:15;16.90;99.90
17954;DHT22;9102;53.548;9.926;2023-08-01T09:30:46;16.90;99.90
17954;DHT22;9102;53.548;9.926;2023-08-01T09:33:13;16.90;99.90
17954;DHT22;9102;53.548;9.926;2023-08-01T09:35:41;16.90;99.90
17954;DHT22;9102;53.548;9.926;2023-08-01T09:38:10;17.10;99.90
17954;DHT22;9102;53.548;9.926;2023-08-01T09:40:37;17.30;99.90
17954;DHT22;9102;53.548;9.926;2023-08-01T09:43:04;17.30;99.90
17954;DHT22;9102;53.548;9.926;2023-08-01T09:45:31;17.50;99.90
17954;DHT22;9102;53.548;9.926;2023-08-01T09:47:59;17.50;99.90
17954;DHT22;9102;53.548;9.926;2023-08-01T09:50:27;17.70;99.90
17954;DHT22;9102;53.548;9.926;2023-08-01T09:52:55;17.90;99.90
17954;DHT22;9102;53.548;9.926;2023-08-01T09:55:26;18.10;99.90
17954;DHT22;9102;53.548;9.926;2023-08-01T09:57:57;18.20;99.90
17954;DHT22;9102;53.548;9.926;2023-08-01T10:00:25;18.30;99.90
17954;DHT22;9102;53.548;9.926;2023-08-01T10:02:52;18.30;99.90
17954;DHT22;9102;53.548;9.926;2023-08-01T10:05:20;18.40;99.90
17954;DHT22;9102;53.548;9.926;2023-08-01T10:07:48;18.50;99.90
17954;DHT22;9102;53.548;9.926;2023-08-01T10:10:18;18.90;99.90
17954;DHT22;9102;53.548;9.926;2023-08-01T10:12:45;19.20;99.90
17954;DHT22;9102;53.548;9.926;2023-08-01T10:15:14;19.30;99.90
17954;DHT22;9102;53.548;9.926;2023-08-01T10:17:41;19.50;99.90
17954;DHT22;9102;53.548;9.926;2023-08-01T10:20:09;19.60;99.90
17954;DHT22;9102;53.548;9.926;2023-08-01T10:22:37;19.50;99.90
17954;DHT22;9102;53.548;9.926;2023-08-01T10:25:05;19.40;99.90
17954;DHT22;9102;53.548;9.926;2023-08-01T10:27:35;19.30;99.90
17954;DHT22;9102;53.548;9.926;2023-08-01T10:30:04;19.40;99.90
17954;DHT22;9102;53.548;9.926;2023-08-01T10:32:33;19.40;99.90
17954;DHT22;9102;53.548;9.926;2023-08-01T10:35:00;19.20;99.90
17954;DHT22;9102;53.548;9.926;2023-08-01T10:37:39;18.90;99.90
17954;DHT22;9102;53.548;9.926;2023-08-01T10:40:07;18.90;99.90
17954;DHT22;9102;53.548;9.926;2023-08-01T10:42:39;19.00;99.90
17954;DHT22;9102;53.548;9.926;2023-08-01T10:45:07;19.00;99.90
17954;DHT22;9102;53.548;9.926;2023-08-01T10:47:34;19.20;99.90
17954;DHT22;9102;53.548;9.926;2023-08-01T10:50:00;19.20;99.90
17954;DHT22;9102;53.548;9.926;2023-08-01T10:52:28;19.20;99.90
17954;DHT22;9102;53.548;9.926;2023-08-01T10:54:57;19.10;99.90
17954;DHT22;9102;53.548;9.926;2023-08-01T10:57:26;19.10;99.90
17954;DHT22;9102;53.548;9.926;2023-08-01T10:59:54;19.00;99.90
17954;DHT22;9102;53.548;9.926;2023-08-01T11:02:23;18.70;99.90
17954;DHT22;9102;53.548;9.926;2023-08-01T11:04:58;18.30;99.90
17954;DHT22;9102;53.548;9.926;2023-08-01T11:07:26;18.00;99.90
17954;DHT22;9102;53.548;9.926;2023-08-01T11:10:07;17.60;99.90
17954;DHT22;9102;53.548;9.926;2023-08-01T11:12:35;17.00;99.90
17954;DHT22;9102;53.548;9.926;2023-08-01T11:15:05;16.50;99.90
17954;DHT22;9102;53.548;9.926;2023-08-01T11:17:34;16.10;99.90
17954;DHT22;9102;53.548;9.926;2023-08-01T11:20:03;15.70;99.90
17954;DHT22;9102;53.548;9.926;2023-08-01T11:22:30;15.50;99.90
17954;DHT22;9102;53.548;9.926;2023-08-01T11:24:57;15.40;99.90
17954;DHT22;9102;53.548;9.926;2023-08-01T11:27:24;15.30;99.90
17954;DHT22;9102;53.548;9.926;2023-08-01T11:29:51;15.30;99.90
17954;DHT22;9102;53.548;9.926;2023-08-01T11:32:20;15.40;99.90
17954;DHT22;9102;53.548;9.926;2023-08-01T11:34:47;15.60;99.90
17954;DHT22;9102;53.548;9.926;2023-08-01T11:37:19;15.80;99.90
17954;DHT22;9102;53.548;9.926;2023-08-01T11:39:47;15.90;99.90
17954;DHT22;9102;53.548;9.926;2023-08-01T11:42:15;16.10;99.90
17954;DHT22;9102;53.548;9.926;2023-08-01T11:44:43;16.30;99.90
17954;DHT22;9102;53.548;9.926;2023-08-01T11:47:13;16.20;99.90
17954;DHT22;9102;53.548;9.926;2023-08-01T11:49:46;16.40;99.90
17954;DHT22;9102;53.548;9.926;2023-08-01T11:52:23;16.40;99.90
17954;DHT22;9102;53.548;9.926;2023-08-01T11:54:50;16.40;99.90
17954;DHT22;9102;53.548;9.926;2023-08-01T11:57:17;16.60;99.90
17954;DHT22;9102;53.548;9.926;2023-08-01T11:59:47;16.80;99.90
17954;DHT22;9102;53.548;9.926;2023-08-01T12:02:21;17.10;99.90
17954;DHT22;9102;53.548;9.926;2023-08-01T12:04:50;17.40;99.90
17954;DHT22;9102;53.548;9.926;2023-08-01T12:07:17;17.70;99.90
17954;DHT22;9102;53.548;9.926;2023-08-01T12:09:44;17.70;99.90
17954;DHT22;9102;53.548;9.926;2023-08-01T12:12:11;17.90;99.90
17954;DHT22;9102;53.548;9.926;2023-08-01T12:14:41;17.80;99.90
17954;DHT22;9102;53.548;9.926;2023-08-01T12:17:08;17.60;99.90
17954;DHT22;9102;53.548;9.926;2023-08-01T12:19:35;17.70;99.90
17954;DHT22;9102;53.548;9.926;2023-08-01T12:22:03;17.70;99.90
17954;DHT22;9102;53.548;9.926;2023-08-01T12:24:30;18.00;99.90
17954;DHT22;9102;53.548;9.926;2023-08-01T12:26:59;18.20;99.90
17954;DHT22;9102;53.548;9.926;2023-08-01T12:29:26;18.40;99.90
17954;DHT22;9102;53.548;9.926;2023-08-01T12:31:52;18.40;99.90
17954;DHT22;9102;53.548;9.926;2023-08-01T12:34:19;18.40;99.90
17954;DHT22;9102;53.548;9.926;2023-08-01T12:36:46;18.30;99.90
17954;DHT22;9102;53.548;9.926;2023-08-01T12:39:14;18.00;99.90
17954;DHT22;9102;53.548;9.926;2023-08-01T12:41:41;17.80;99.90
17954;DHT22;9102;53.548;9.926;2023-08-01T12:44:08;17.50;99.90
17954;DHT22;9102;53.548;9.926;2023-08-01T12:46:34;17.40;99.90
17954;DHT22;9102;53.548;9.926;2023-08-01T12:49:02;17.20;99.90
17954;DHT22;9102;53.548;9.926;2023-08-01T12:51:29;17.10;99.90
17954;DHT22;9102;53.548;9.926;2023-08-01T12:53:56;17.00;99.90
17954;DHT22;9102;53.548;9.926;2023-08-01T12:56:24;16.80;99.90
17954;DHT22;9102;53.548;9.926;2023-08-01T12:58:51;16.90;99.90
17954;DHT22;9102;53.548;9.926;2023-08-01T13:01:17;16.90;99.90
17954;DHT22;9102;53.548;9.926;2023-08-01T13:03:44;16.90;99.90
17954;DHT22;9102;53.548;9.926;2023-08-01T13:06:11;16.90;99.90
17954;DHT22;9102;53.548;9.926;2023-08-01T13:08:39;17.10;99.90
17954;DHT22;9102;53.548;9.926;2023-08-01T13:11:15;17.20;99.90
17954;DHT22;9102;53.548;9.926;2023-08-01T13:13:43;17.40;99.90
17954;DHT22;9102;53.548;9.926;2023-08-01T13:16:11;17.50;99.90
17954;DHT22;9102;53.548;9.926;2023-08-01T13:18:38;17.60;99.90
17954;DHT22;9102;53.548;9.926;2023-08-01T13:21:09;17.70;99.90
17954;DHT22;9102;53.548;9.926;2023-08-01T13:23:36;17.80;99.90
17954;DHT22;9102;53.548;9.926;2023-08-01T13:26:03;17.90;99.90
17954;DHT22;9102;53.548;9.926;2023-08-01T13:28:30;17.90;99.90
17954;DHT22;9102;53.548;9.926;2023-08-01T13:30:58;17.70;99.90
17954;DHT22;9102;53.548;9.926;2023-08-01T13:33:25;17.50;99.90
17954;DHT22;9102;53.548;9.926;2023-08-01T13:35:52;17.50;99.90
17954;DHT22;9102;53.548;9.926;2023-08-01T13:38:19;17.50;99.90
17954;DHT22;9102;53.548;9.926;2023-08-01T13:40:46;17.40;99.90
17954;DHT22;9102;53.548;9.926;2023-08-01T13:43:13;17.50;99.90
17954;DHT22;9102;53.548;9.926;2023-08-01T13:45:39;17.40;99.90
17954;DHT22;9102;53.548;9.926;2023-08-01T13:48:08;17.40;99.90
17954;DHT22;9102;53.548;9.926;2023-08-01T13:50:34;17.50;99.90
17954;DHT22;9102;53.548;9.926;2023-08-01T13:53:01;17.70;99.90
17954;DHT22;9102;53.548;9.926;2023-08-01T13:55:28;17.90;99.90
17954;DHT22;9102;53.548;9.926;2023-08-01T13:57:55;18.10;99.90
17954;DHT22;9102;53.548;9.926;2023-08-01T14:00:22;18.10;99.90
17954;DHT22;9102;53.548;9.926;2023-08-01T14:02:49;18.10;99.90
17954;DHT22;9102;53.548;9.926;2023-08-01T14:05:18;18.00;99.90
17954;DHT22;9102;53.548;9.926;2023-08-01T14:07:45;18.00;99.90
17954;DHT22;9102;53.548;9.926;2023-08-01T14:10:12;18.00;99.90
17954;DHT22;9102;53.548;9.926;2023-08-01T14:12:40;17.90;99.90
17954;DHT22;9102;53.548;9.926;2023-08-01T14:15:07;17.60;99.90
17954;DHT22;9102;53.548;9.926;2023-08-01T14:17:34;17.20;99.90
17954;DHT22;9102;53.548;9.926;2023-08-01T14:20:01;16.70;99.90
17954;DHT22;9102;53.548;9.926;2023-08-01T14:22:31;16.50;99.90
17954;DHT22;9102;53.548;9.926;2023-08-01T14:24:58;16.30;99.90
17954;DHT22;9102;53.548;9.926;2023-08-01T14:27:25;16.20;99.90
17954;DHT22;9102;53.548;9.926;2023-08-01T14:29:51;16.20;99.90
17954;DHT22;9102;53.548;9.926;2023-08-01T14:32:19;16.10;99.90
17954;DHT22;9102;53.548;9.926;2023-08-01T14:34:46;16.10;99.90
17954;DHT22;9102;53.548;9.926;2023-08-01T14:37:13;16.20;99.90
17954;DHT22;9102;53.548;9.926;2023-08-01T14:39:41;16.40;99.90
17954;DHT22;9102;53.548;9.926;2023-08-01T14:42:07;16.50;99.90
17954;DHT22;9102;53.548;9.926;2023-08-01T14:44:34;16.60;99.90
17954;DHT22;9102;53.548;9.926;2023-08-01T14:47:01;16.60;99.90
17954;DHT22;9102;53.548;9.926;2023-08-01T14:49:28;16.60;99.90
17954;DHT22;9102;53.548;9.926;2023-08-01T14:51:55;16.70;99.90
17954;DHT22;9102;53.548;9.926;2023-08-01T14:54:22;17.00;99.90
17954;DHT22;9102;53.548;9.926;2023-08-01T14:56:51;17.20;99.90
17954;DHT22;9102;53.548;9.926;2023-08-01T14:59:18;17.40;99.90
17954;DHT22;9102;53.548;9.926;2023-08-01T15:01:45;17.50;99.90
17954;DHT22;9102;53.548;9.926;2023-08-01T15:04:12;17.70;99.90
17954;DHT22;9102;53.548;9.926;2023-08-01T15:06:38;17.90;99.90
17954;DHT22;9102;53.548;9.926;2023-08-01T15:09:05;18.10;99.90
17954;DHT22;9102;53.548;9.926;2023-08-01T15:11:32;18.10;99.90
17954;DHT22;9102;53.548;9.926;2023-08-01T15:14:00;18.10;99.90
17954;DHT22;9102;53.548;9.926;2023-08-01T15:16:27;17.80;99.90
17954;DHT22;9102;53.548;9.926;2023-08-01T15:18:53;17.70;99.90
17954;DHT22;9102;53.548;9.926;2023-08-01T15:21:20;17.80;99.90
17954;DHT22;9102;53.548;9.926;2023-08-01T15:23:48;17.70;99.90
17954;DHT22;9102;53.548;9.926;2023-08-01T15:26:14;17.60;99.90
17954;DHT22;9102;53.548;9.926;2023-08-01T15:28:41;17.60;99.90
17954;DHT22;9102;53.548;9.926;2023-08-01T15:31:10;17.50;99.90
17954;DHT22;9102;53.548;9.926;2023-08-01T15:33:37;17.40;99.90
17954;DHT22;9102;53.548;9.926;2023-08-01T15:36:05;17.40;99.90
17954;DHT22;9102;53.548;9.926;2023-08-01T15:38:34;17.40;99.90
17954;DHT22;9102;53.548;9.926;2023-08-01T15:41:01;17.30;99.90
17954;DHT22;9102;53.548;9.926;2023-08-01T15:43:34;17.30;99.90
17954;DHT22;9102;53.548;9.926;2023-08-01T15:46:02;17.50;99.90